createdAt,value
2017-12-02T00:00:46.620Z,14.20
2017-12-02T00:03:13.010Z,9.77
2017-12-02T00:05:39.354Z,12.73
2017-12-02T00:08:05.709Z,13.77
2017-12-02T00:10:32.028Z,13.97
2017-12-02T00:12:58.306Z,9.57
2017-12-02T00:15:25.508Z,11.87
2017-12-02T00:17:51.860Z,10.60
2017-12-02T00:20:18.150Z,16.07
2017-12-02T00:22:44.450Z,9.23
2017-12-02T00:25:10.800Z,12.67
2017-12-02T00:27:37.126Z,15.30
2017-12-02T00:30:03.465Z,10.33
2017-12-02T00:32:29.802Z,10.63
2017-12-02T00:34:56.104Z,8.27
2017-12-02T00:37:23.173Z,11.00
2017-12-02T00:39:49.486Z,10.07
2017-12-02T00:42:16.521Z,7.73
2017-12-02T00:44:42.795Z,9.13
2017-12-02T00:47:09.101Z,9.37
2017-12-02T00:49:36.213Z,9.40
2017-12-02T00:52:02.573Z,10.70
2017-12-02T00:54:28.903Z,10.20
2017-12-02T00:56:55.928Z,10.77
2017-12-02T00:59:22.205Z,10.23
2017-12-02T01:01:48.504Z,9.57
2017-12-02T01:04:14.813Z,9.50
2017-12-02T01:06:41.058Z,7.83
2017-12-02T01:09:07.389Z,8.73
2017-12-02T01:11:33.982Z,10.10
2017-12-02T01:14:00.296Z,7.77
2017-12-02T01:16:26.660Z,10.17
2017-12-02T01:18:52.954Z,7.93
2017-12-02T01:21:20.039Z,9.40
2017-12-02T01:23:46.332Z,7.80
2017-12-02T01:26:13.344Z,10.30
2017-12-02T01:28:39.672Z,9.73
2017-12-02T01:31:06.012Z,7.70
2017-12-02T01:33:32.302Z,6.07
2017-12-02T01:35:58.569Z,7.53
2017-12-02T01:38:24.897Z,6.07
2017-12-02T01:40:51.220Z,6.93
2017-12-02T01:43:17.522Z,8.33
2017-12-02T01:45:43.821Z,7.47
2017-12-02T01:48:11.786Z,7.97
2017-12-02T01:50:38.816Z,6.37
2017-12-02T01:53:05.097Z,6.83
2017-12-02T01:55:31.393Z,5.17
2017-12-02T01:57:58.471Z,5.33
2017-12-02T02:00:24.719Z,4.67
2017-12-02T02:02:51.017Z,8.37
2017-12-02T02:05:17.302Z,7.57
2017-12-02T02:07:43.575Z,6.00
2017-12-02T02:10:10.581Z,7.13
2017-12-02T02:12:36.911Z,11.97
2017-12-02T02:15:03.176Z,8.17
2017-12-02T02:17:30.194Z,7.93
2017-12-02T02:19:56.519Z,5.90
2017-12-02T02:22:22.817Z,6.90
2017-12-02T02:24:49.140Z,8.30
2017-12-02T02:27:15.390Z,7.20
2017-12-02T02:29:41.642Z,7.30
2017-12-02T02:32:08.004Z,7.73
2017-12-02T02:34:35.040Z,8.17
2017-12-02T02:37:02.124Z,8.23
2017-12-02T02:39:28.448Z,7.67
2017-12-02T02:41:54.701Z,10.17
2017-12-02T02:44:20.937Z,10.70
2017-12-02T02:46:47.268Z,10.37
2017-12-02T02:49:13.581Z,9.30
2017-12-02T02:51:39.868Z,9.67
2017-12-02T02:54:06.903Z,7.40
2017-12-02T02:56:34.001Z,8.33
2017-12-02T02:59:00.428Z,7.00
2017-12-02T03:01:26.711Z,8.83
2017-12-02T03:03:53.011Z,9.03
2017-12-02T03:06:19.288Z,9.13
2017-12-02T03:08:45.573Z,6.63
2017-12-02T03:11:11.850Z,7.83
2017-12-02T03:13:38.850Z,7.50
2017-12-02T03:16:05.148Z,10.07
2017-12-02T03:18:31.484Z,9.53
2017-12-02T03:20:57.794Z,7.20
2017-12-02T03:23:24.814Z,10.20
2017-12-02T03:25:51.118Z,8.80
2017-12-02T03:28:17.427Z,8.57
2017-12-02T03:30:43.761Z,9.40
2017-12-02T03:33:10.102Z,11.00
2017-12-02T03:35:36.385Z,14.07
2017-12-02T03:38:02.660Z,15.50
2017-12-02T03:40:28.976Z,11.87
2017-12-02T03:42:55.329Z,9.13
2017-12-02T03:45:21.634Z,10.07
2017-12-02T03:47:48.686Z,11.10
2017-12-02T03:50:15.019Z,12.20
2017-12-02T03:52:41.327Z,13.17
2017-12-02T03:55:08.424Z,9.57
2017-12-02T03:57:34.738Z,9.47
2017-12-02T04:00:01.076Z,11.10
2017-12-02T04:02:27.383Z,9.30
2017-12-02T04:04:54.438Z,11.43
2017-12-02T04:07:20.699Z,11.87
2017-12-02T04:09:47.016Z,13.70
2017-12-02T04:12:13.760Z,12.07
2017-12-02T04:14:40.095Z,12.40
2017-12-02T04:17:07.384Z,9.00
2017-12-02T04:19:33.774Z,10.80
2017-12-02T04:22:00.112Z,14.47
2017-12-02T04:24:26.410Z,15.27
2017-12-02T04:26:53.466Z,10.90
2017-12-02T04:29:19.795Z,16.77
2017-12-02T04:31:46.088Z,13.97
2017-12-02T04:34:12.403Z,14.70
2017-12-02T04:36:38.708Z,12.10
2017-12-02T04:39:05.054Z,13.67
2017-12-02T04:41:31.349Z,12.70
2017-12-02T04:43:58.393Z,11.90
2017-12-02T04:46:25.443Z,13.17
2017-12-02T04:48:52.558Z,14.53
2017-12-02T04:51:18.845Z,12.07
2017-12-02T04:53:45.185Z,14.53
2017-12-02T04:56:11.498Z,15.80
2017-12-02T04:58:37.785Z,14.27
2017-12-02T05:01:04.094Z,16.40
2017-12-02T05:03:30.389Z,15.50
2017-12-02T05:05:56.659Z,15.80
2017-12-02T05:08:22.953Z,17.90
2017-12-02T05:10:49.239Z,21.47
2017-12-02T05:13:15.499Z,17.33
2017-12-02T05:15:42.406Z,18.00
2017-12-02T05:18:08.680Z,21.70
2017-12-02T05:20:35.035Z,16.03
2017-12-02T05:23:01.338Z,16.60
2017-12-02T05:25:27.666Z,16.10
2017-12-02T05:27:53.996Z,18.47
2017-12-02T05:30:20.311Z,19.10
2017-12-02T05:32:47.386Z,20.83
2017-12-02T05:35:13.655Z,20.10
2017-12-02T05:37:39.940Z,18.63
2017-12-02T05:40:06.252Z,18.17
2017-12-02T05:42:33.300Z,17.27
2017-12-02T05:45:00.300Z,15.20
2017-12-02T05:47:26.589Z,18.13
2017-12-02T05:49:53.645Z,17.47
2017-12-02T05:52:19.935Z,17.17
2017-12-02T05:54:46.196Z,24.50
2017-12-02T05:57:14.161Z,15.97
2017-12-02T05:59:41.195Z,18.90
2017-12-02T06:02:07.449Z,18.63
2017-12-02T06:04:33.791Z,19.30
2017-12-02T06:07:00.079Z,17.07
2017-12-02T06:09:26.350Z,17.20
2017-12-02T06:11:52.611Z,17.43
2017-12-02T06:14:18.889Z,17.67
2017-12-02T06:16:45.900Z,18.73
2017-12-02T06:19:12.211Z,18.63
2017-12-02T06:21:38.496Z,17.90
2017-12-02T06:24:05.484Z,18.97
2017-12-02T06:26:31.752Z,19.00
2017-12-02T06:28:58.002Z,18.90
2017-12-02T06:31:24.994Z,19.90
2017-12-02T06:33:51.244Z,19.70
2017-12-02T06:36:18.291Z,20.07
2017-12-02T06:38:44.566Z,23.27
2017-12-02T06:41:10.816Z,20.90
2017-12-02T06:43:37.120Z,24.30
2017-12-02T06:46:04.120Z,19.97
2017-12-02T06:48:30.397Z,19.53
2017-12-02T06:50:57.412Z,24.00
2017-12-02T06:53:23.678Z,25.23
2017-12-02T06:55:49.969Z,21.93
2017-12-02T06:58:16.279Z,23.83
2017-12-02T07:00:42.587Z,22.60
2017-12-02T07:03:08.941Z,20.97
2017-12-02T07:05:35.301Z,24.63
2017-12-02T07:08:01.597Z,22.20
2017-12-02T07:10:27.914Z,25.53
2017-12-02T07:12:54.219Z,27.10
2017-12-02T07:15:21.220Z,21.57
2017-12-02T07:17:47.504Z,25.03
2017-12-02T07:20:13.761Z,22.83
2017-12-02T07:22:40.064Z,27.20
2017-12-02T07:25:07.096Z,21.43
2017-12-02T07:27:34.139Z,24.50
2017-12-02T07:30:01.166Z,24.37
2017-12-02T07:32:27.480Z,23.57
2017-12-02T07:34:53.771Z,29.77
2017-12-02T07:37:20.253Z,27.33
2017-12-02T07:39:46.534Z,32.33
2017-12-02T07:42:12.835Z,23.00
2017-12-02T07:44:39.110Z,23.73
2017-12-02T07:47:05.397Z,32.73
2017-12-02T07:49:31.681Z,33.17
2017-12-02T07:51:57.961Z,33.30
2017-12-02T07:54:25.003Z,32.67
2017-12-02T07:56:51.290Z,29.00
2017-12-02T07:59:17.645Z,28.13
2017-12-02T08:01:43.940Z,28.37
2017-12-02T08:04:10.205Z,29.80
2017-12-02T08:06:36.486Z,32.27
2017-12-02T08:09:02.929Z,29.23
2017-12-02T08:11:29.185Z,30.90
2017-12-02T08:13:55.476Z,28.20
2017-12-02T08:16:22.505Z,29.00
2017-12-02T08:18:49.546Z,26.13
2017-12-02T08:21:16.695Z,22.80
2017-12-02T08:23:43.017Z,27.97
2017-12-02T08:26:09.394Z,25.07
2017-12-02T08:28:35.654Z,24.80
2017-12-02T08:31:01.965Z,20.60
2017-12-02T08:33:28.294Z,24.93
2017-12-02T08:35:54.614Z,22.03
2017-12-02T08:38:20.936Z,23.83
2017-12-02T08:40:47.361Z,25.43
2017-12-02T08:43:14.455Z,23.10
2017-12-02T08:45:40.770Z,20.93
2017-12-02T08:48:07.036Z,21.77
2017-12-02T08:50:33.326Z,22.10
2017-12-02T08:52:59.625Z,16.73
2017-12-02T08:55:26.661Z,24.37
2017-12-02T08:57:52.962Z,20.53
2017-12-02T09:00:19.250Z,19.63
2017-12-02T09:02:46.365Z,19.23
2017-12-02T09:05:12.637Z,19.03
2017-12-02T09:07:38.958Z,16.93
2017-12-02T09:10:05.995Z,21.90
2017-12-02T09:12:33.003Z,19.27
2017-12-02T09:14:59.403Z,17.67
2017-12-02T09:17:25.692Z,18.60
2017-12-02T09:19:52.150Z,19.10
2017-12-02T09:22:19.600Z,17.50
2017-12-02T09:24:46.966Z,25.93
2017-12-02T09:27:13.304Z,23.43
2017-12-02T09:29:39.616Z,21.13
2017-12-02T09:32:06.670Z,19.50
2017-12-02T09:34:33.660Z,20.17
2017-12-02T09:37:00.179Z,15.47
2017-12-02T09:39:26.783Z,16.40
2017-12-02T09:41:54.025Z,15.33
2017-12-02T09:44:20.325Z,15.20
2017-12-02T09:46:46.629Z,15.73
2017-12-02T09:49:12.965Z,19.03
2017-12-02T09:51:39.217Z,19.27
2017-12-02T09:54:05.503Z,15.70
2017-12-02T09:56:32.566Z,17.30
2017-12-02T09:58:59.991Z,16.03
2017-12-02T10:01:26.275Z,16.37
2017-12-02T10:03:52.588Z,13.00
2017-12-02T10:06:18.919Z,15.17
2017-12-02T10:08:45.272Z,15.30
2017-12-02T10:11:11.576Z,20.17
2017-12-02T10:13:37.864Z,14.70
2017-12-02T10:16:04.183Z,14.30
2017-12-02T10:18:30.520Z,17.53
2017-12-02T10:20:56.919Z,13.97
2017-12-02T10:23:23.332Z,14.63
2017-12-02T10:25:49.690Z,13.47
2017-12-02T10:28:16.033Z,14.30
2017-12-02T10:30:43.355Z,12.47
2017-12-02T10:33:09.677Z,11.77
2017-12-02T10:35:36.081Z,14.60
2017-12-02T10:38:03.181Z,15.10
2017-12-02T10:40:29.507Z,13.87
2017-12-02T10:42:56.309Z,11.63
2017-12-02T10:45:22.659Z,13.37
2017-12-02T10:47:49.013Z,16.33
2017-12-02T10:50:15.349Z,13.93
2017-12-02T10:52:41.697Z,16.10
2017-12-02T10:55:07.999Z,16.30
2017-12-02T10:57:34.359Z,15.63
2017-12-02T11:00:00.667Z,14.47
2017-12-02T11:02:27.005Z,16.47
2017-12-02T11:04:53.337Z,13.90
2017-12-02T11:07:19.668Z,15.63
2017-12-02T11:09:45.951Z,15.93
2017-12-02T11:12:12.939Z,15.33
2017-12-02T11:14:39.204Z,14.53
2017-12-02T11:17:05.491Z,16.40
2017-12-02T11:19:31.810Z,13.30
2017-12-02T11:21:58.067Z,11.40
2017-12-02T11:24:24.322Z,12.17
2017-12-02T11:26:50.724Z,13.87
2017-12-02T11:29:17.128Z,13.60
2017-12-02T11:31:44.300Z,12.67
2017-12-02T11:34:12.389Z,11.47
2017-12-02T11:36:39.319Z,15.07
2017-12-02T11:39:05.663Z,14.90
2017-12-02T11:41:31.930Z,14.37
2017-12-02T11:43:59.009Z,15.37
2017-12-02T11:46:25.279Z,15.60
2017-12-02T11:48:51.895Z,15.70
2017-12-02T11:51:18.145Z,13.30
2017-12-02T11:53:44.414Z,13.43
2017-12-02T11:56:11.446Z,16.03
2017-12-02T11:58:37.799Z,16.10
2017-12-02T12:01:04.848Z,12.33
2017-12-02T12:03:31.843Z,15.10
2017-12-02T12:05:58.569Z,13.50
2017-12-02T12:08:24.975Z,12.27
2017-12-02T12:10:51.291Z,13.27
2017-12-02T12:13:18.290Z,11.70
2017-12-02T12:15:44.602Z,12.57
2017-12-02T12:18:10.904Z,14.70
2017-12-02T12:20:37.942Z,14.10
2017-12-02T12:23:05.057Z,14.70
2017-12-02T12:25:31.362Z,13.70
2017-12-02T12:27:57.731Z,18.73
2017-12-02T12:30:24.064Z,14.77
2017-12-02T12:32:50.390Z,11.80
2017-12-02T12:35:16.700Z,14.40
2017-12-02T12:37:42.997Z,13.73
2017-12-02T12:40:10.115Z,14.30
2017-12-02T12:42:36.463Z,13.43
2017-12-02T12:45:03.463Z,13.57
2017-12-02T12:47:29.743Z,15.80
2017-12-02T12:49:56.742Z,17.73
2017-12-02T12:52:23.047Z,18.97
2017-12-02T12:54:49.344Z,13.80
2017-12-02T12:57:15.651Z,15.37
2017-12-02T12:59:42.556Z,19.67
2017-12-02T13:02:08.924Z,15.17
2017-12-02T13:04:35.342Z,16.40
2017-12-02T13:07:01.899Z,17.83
2017-12-02T13:09:28.296Z,18.10
2017-12-02T13:11:54.613Z,21.73
2017-12-02T13:14:20.912Z,18.57
2017-12-02T13:16:47.200Z,18.90
2017-12-02T13:19:13.539Z,17.50
2017-12-02T13:21:39.871Z,22.70
2017-12-02T13:24:06.211Z,23.83
2017-12-02T13:26:32.544Z,20.00
2017-12-02T13:28:58.851Z,18.03
2017-12-02T13:31:25.194Z,22.37
2017-12-02T13:33:51.594Z,18.83
2017-12-02T13:36:17.932Z,19.73
2017-12-02T13:38:44.305Z,20.10
2017-12-02T13:41:10.625Z,18.30
2017-12-02T13:43:36.936Z,18.07
2017-12-02T13:46:03.265Z,19.67
2017-12-02T13:48:30.562Z,22.30
2017-12-02T13:50:58.051Z,18.27
2017-12-02T13:53:25.252Z,18.60
2017-12-02T13:55:51.858Z,18.47
2017-12-02T13:58:18.726Z,18.63
2017-12-02T14:00:45.120Z,17.67
2017-12-02T14:03:12.332Z,16.83
2017-12-02T14:05:39.531Z,14.93
2017-12-02T14:08:05.869Z,18.20
2017-12-02T14:10:32.205Z,17.10
2017-12-02T14:12:58.563Z,19.10
2017-12-02T14:15:25.069Z,16.87
2017-12-02T14:17:51.399Z,20.20
2017-12-02T14:20:17.767Z,17.03
2017-12-02T14:22:44.082Z,15.80
2017-12-02T14:25:10.397Z,15.70
2017-12-02T14:27:36.681Z,15.33
2017-12-02T14:30:03.080Z,17.20
2017-12-02T14:32:30.515Z,17.53
2017-12-02T14:34:56.858Z,20.57
2017-12-02T14:37:23.175Z,17.13
2017-12-02T14:39:49.570Z,16.37
2017-12-02T14:42:15.925Z,17.87
2017-12-02T14:44:42.997Z,15.47
2017-12-02T14:47:09.870Z,17.73
2017-12-02T14:49:38.134Z,15.63
2017-12-02T14:52:04.798Z,16.10
2017-12-02T14:54:31.166Z,14.13
2017-12-02T14:56:58.206Z,15.80
2017-12-02T14:59:25.508Z,16.03
2017-12-02T15:01:51.824Z,14.53
2017-12-02T15:04:18.139Z,14.53
2017-12-02T15:06:44.753Z,17.00
2017-12-02T15:09:11.252Z,12.00
2017-12-02T15:11:37.658Z,18.40
2017-12-02T15:14:04.009Z,16.20
2017-12-02T15:16:30.343Z,17.60
2017-12-02T15:18:56.662Z,14.83
2017-12-02T15:21:24.868Z,15.33
2017-12-02T15:23:51.301Z,19.60
2017-12-02T15:26:17.724Z,18.40
2017-12-02T15:28:44.013Z,16.40
2017-12-02T15:31:10.349Z,17.63
2017-12-02T15:33:36.657Z,22.33
2017-12-02T15:36:04.518Z,16.17
2017-12-02T15:38:31.608Z,16.40
2017-12-02T15:40:58.126Z,19.50
2017-12-02T15:43:24.460Z,16.43
2017-12-02T15:45:50.842Z,25.27
2017-12-02T15:48:17.264Z,24.47
2017-12-02T15:50:44.378Z,22.23
2017-12-02T15:53:10.780Z,18.30
2017-12-02T15:55:37.874Z,22.50
2017-12-02T15:58:04.229Z,23.50
2017-12-02T16:00:31.318Z,31.07
2017-12-02T16:03:05.470Z,24.50
2017-12-02T16:05:31.784Z,29.43
2017-12-02T16:07:58.221Z,29.67
2017-12-02T16:10:24.556Z,52.37
2017-12-02T16:12:50.879Z,36.30
2017-12-02T16:15:17.211Z,33.53
2017-12-02T16:17:43.506Z,33.67
2017-12-02T16:20:09.972Z,41.07
2017-12-02T16:22:36.325Z,42.87
2017-12-02T16:25:02.695Z,39.93
2017-12-02T16:27:29.426Z,40.60
2017-12-02T16:29:55.841Z,39.37
2017-12-02T16:32:22.244Z,44.73
2017-12-02T16:34:48.615Z,39.97
2017-12-02T16:37:14.953Z,41.73
2017-12-02T16:39:41.306Z,47.00
2017-12-02T16:42:08.444Z,44.63
2017-12-02T16:44:34.735Z,41.03
2017-12-02T16:47:01.051Z,41.13
2017-12-02T16:49:27.520Z,36.67
2017-12-02T16:51:53.871Z,40.80
2017-12-02T16:54:20.288Z,40.07
2017-12-02T16:56:46.679Z,44.27
2017-12-02T16:59:13.020Z,32.73
2017-12-02T17:01:39.342Z,31.13
2017-12-02T17:04:05.675Z,33.23
2017-12-02T17:06:32.009Z,28.70
2017-12-02T17:08:58.324Z,28.10
2017-12-02T17:11:25.392Z,25.10
2017-12-02T17:13:51.673Z,31.27
2017-12-02T17:16:18.004Z,27.93
2017-12-02T17:18:44.355Z,29.50
2017-12-02T17:21:11.384Z,29.67
2017-12-02T17:23:37.949Z,39.23
2017-12-02T17:26:05.095Z,32.33
2017-12-02T17:28:32.149Z,36.17
2017-12-02T17:30:59.174Z,33.33
2017-12-02T17:33:25.494Z,29.80
2017-12-02T17:35:51.801Z,45.47
2017-12-02T17:38:18.269Z,33.97
2017-12-02T17:40:44.581Z,45.47
2017-12-02T17:43:10.993Z,46.87
2017-12-02T17:45:37.330Z,48.70
2017-12-02T17:48:04.555Z,54.70
2017-12-02T17:50:32.374Z,55.00
2017-12-02T17:52:59.228Z,56.73
2017-12-02T17:55:27.013Z,50.70
2017-12-02T17:57:54.510Z,46.80
2017-12-02T18:00:21.451Z,41.20
2017-12-02T18:02:48.072Z,40.90
2017-12-02T18:05:15.095Z,37.17
2017-12-02T18:07:42.350Z,31.70
2017-12-02T18:10:09.873Z,34.50
2017-12-02T18:12:36.188Z,40.03
2017-12-02T18:15:02.534Z,34.00
2017-12-02T18:17:28.892Z,29.63
2017-12-02T18:19:55.737Z,34.80
2017-12-02T18:22:22.839Z,30.83
2017-12-02T18:24:49.738Z,31.67
2017-12-02T18:27:17.287Z,34.73
2017-12-02T18:29:44.699Z,33.03
2017-12-02T18:32:11.027Z,32.70
2017-12-02T18:34:37.758Z,29.23
2017-12-02T18:37:04.266Z,31.63
2017-12-02T18:39:31.605Z,33.60
2017-12-02T18:41:58.449Z,38.17
2017-12-02T18:44:25.699Z,39.97
2017-12-02T18:46:53.271Z,41.03
2017-12-02T18:49:20.869Z,37.03
2017-12-02T18:51:47.481Z,39.53
2017-12-02T18:54:13.882Z,39.87
2017-12-02T18:56:40.570Z,40.80
2017-12-02T18:59:07.206Z,41.47
2017-12-02T19:01:33.818Z,47.50
2017-12-02T19:04:01.127Z,41.07
2017-12-02T19:06:27.779Z,34.87
2017-12-02T19:08:54.376Z,41.40
2017-12-02T19:11:20.784Z,38.00
2017-12-02T19:13:47.840Z,43.57
2017-12-02T19:16:15.033Z,46.90
2017-12-02T19:18:41.297Z,35.73
2017-12-02T19:21:07.959Z,42.33
2017-12-02T19:23:35.074Z,39.03
2017-12-02T19:26:01.900Z,35.90
2017-12-02T19:28:28.437Z,42.37
2017-12-02T19:30:55.859Z,50.00
2017-12-02T19:33:22.160Z,48.33
2017-12-02T19:35:48.642Z,43.93
2017-12-02T19:38:15.202Z,33.83
2017-12-02T19:40:42.012Z,40.20
2017-12-02T19:43:08.722Z,37.60
2017-12-02T19:45:36.027Z,39.17
2017-12-02T19:48:02.706Z,39.87
2017-12-02T19:50:29.744Z,32.77
2017-12-02T19:52:56.368Z,33.57
2017-12-02T19:55:22.909Z,32.93
2017-12-02T19:57:49.438Z,36.80
2017-12-02T20:00:16.144Z,37.27
2017-12-02T20:02:42.488Z,39.23
2017-12-02T20:05:09.381Z,36.37
2017-12-02T20:07:36.868Z,36.80
2017-12-02T20:10:04.361Z,42.90
2017-12-02T20:12:31.147Z,42.97
2017-12-02T20:14:59.620Z,36.50
2017-12-02T20:17:27.160Z,32.43
2017-12-02T20:19:53.673Z,41.30
2017-12-02T20:22:20.271Z,43.43
2017-12-02T20:24:47.544Z,54.47
2017-12-02T20:27:13.888Z,63.07
2017-12-02T20:29:40.419Z,45.97
2017-12-02T20:32:06.802Z,47.97
2017-12-02T20:34:33.497Z,44.17
2017-12-02T20:36:59.831Z,37.17
2017-12-02T20:39:27.449Z,36.00
2017-12-02T20:41:54.056Z,39.50
2017-12-02T20:44:20.902Z,33.50
2017-12-02T20:46:47.792Z,33.30
2017-12-02T20:49:14.170Z,29.87
2017-12-02T20:51:40.462Z,36.00
2017-12-02T20:54:06.804Z,33.10
2017-12-02T20:56:33.375Z,31.53
2017-12-02T20:59:00.690Z,30.83
2017-12-02T21:01:27.308Z,34.83
2017-12-02T21:03:53.677Z,30.30
2017-12-02T21:06:20.149Z,31.43
2017-12-02T21:08:46.852Z,32.30
2017-12-02T21:11:13.182Z,33.37
2017-12-02T21:13:39.520Z,38.83
2017-12-02T21:16:05.849Z,30.73
2017-12-02T21:18:32.419Z,37.20
2017-12-02T21:20:58.722Z,34.23
2017-12-02T21:23:25.109Z,36.97
2017-12-02T21:25:52.344Z,35.13
2017-12-02T21:28:18.985Z,42.97
2017-12-02T21:30:45.768Z,37.00
2017-12-02T21:33:12.447Z,38.60
2017-12-02T21:35:38.975Z,45.03
2017-12-02T21:38:05.307Z,35.13
2017-12-02T21:40:31.876Z,38.67
2017-12-02T21:42:59.228Z,41.70
2017-12-02T21:45:25.646Z,41.07
2017-12-02T21:47:52.139Z,37.47
2017-12-02T21:50:18.918Z,43.87
2017-12-02T21:52:45.581Z,33.87
2017-12-02T21:55:13.060Z,33.27
2017-12-02T21:57:39.544Z,36.07
2017-12-02T22:00:06.311Z,36.27
2017-12-02T22:02:33.582Z,35.83
2017-12-02T22:05:00.029Z,37.83
2017-12-02T22:07:26.565Z,34.17
2017-12-02T22:09:53.262Z,32.37
2017-12-02T22:12:19.571Z,37.53
2017-12-02T22:14:45.936Z,36.50
2017-12-02T22:17:13.638Z,35.20
2017-12-02T22:19:40.382Z,33.40
2017-12-02T22:22:07.014Z,34.07
2017-12-02T22:24:33.324Z,37.67
2017-12-02T22:27:00.688Z,35.73
2017-12-02T22:29:27.226Z,33.57
2017-12-02T22:32:08.663Z,38.77
2017-12-02T22:34:35.225Z,32.90
2017-12-02T22:37:04.101Z,35.80
2017-12-02T22:39:32.196Z,37.00
2017-12-02T22:41:59.552Z,37.20
2017-12-02T22:44:25.926Z,33.60
2017-12-02T22:46:55.581Z,34.87
2017-12-02T22:49:22.272Z,32.57
2017-12-02T22:51:48.895Z,31.93
2017-12-02T22:54:15.736Z,40.80
2017-12-02T22:56:42.700Z,32.70
2017-12-02T22:59:09.316Z,31.27
2017-12-02T23:01:36.001Z,33.93
2017-12-02T23:04:02.305Z,35.63
2017-12-02T23:06:29.075Z,33.10
2017-12-02T23:08:56.191Z,33.90
2017-12-02T23:11:22.767Z,38.20
2017-12-02T23:13:50.101Z,39.17
2017-12-02T23:16:16.774Z,37.47
2017-12-02T23:18:44.088Z,42.13
2017-12-02T23:21:10.730Z,32.47
2017-12-02T23:23:37.403Z,28.17
2017-12-02T23:26:03.989Z,33.37
2017-12-02T23:28:30.428Z,33.93
2017-12-02T23:30:58.076Z,32.07
2017-12-02T23:33:24.662Z,36.17
2017-12-02T23:35:50.994Z,31.00
2017-12-02T23:38:17.496Z,32.03
2017-12-02T23:40:43.851Z,26.33
2017-12-02T23:43:10.576Z,26.47
2017-12-02T23:45:36.989Z,31.37
2017-12-02T23:48:03.893Z,30.30
2017-12-02T23:50:31.309Z,31.23
2017-12-02T23:52:57.955Z,36.80
2017-12-02T23:55:24.577Z,28.33
2017-12-02T23:57:51.341Z,29.77
